Time;durP1;ratioP1;P1;durP2;ratioP2;P2;SDS_P1;SDS_P2;PMS_P1;PMS_P2;Temp;Humidity;BMP_temperature;BMP_pressure;BME280_temperature;BME280_humidity;BME280_pressure;Samples;Min_cycle;Max_cycle;Signal;HPM_P1;HPM_P2
2023/04/24 00:02:13;;;;;;;2.60;1.85;;;;;;;;;;5031610;28;20034;-62
2023/04/24 00:04:44;;;;;;;1.80;1.70;;;;;;;;;;5044956;28;20498;-62
2023/04/24 00:07:10;;;;;;;2.13;1.98;;;;;;;;;;5043035;28;20041;-62
2023/04/24 00:09:36;;;;;;;2.45;2.25;;;;;;;;;;5051915;28;20078;-63
2023/04/24 00:12:04;;;;;;;2.40;2.20;;;;;;;;;;5016186;28;20100;-62
2023/04/24 00:14:30;;;;;;;2.88;2.58;;;;;;;;;;5044036;28;20552;-62
2023/04/24 00:16:56;;;;;;;3.38;2.22;;;;;;;;;;5035550;28;20044;-62
2023/04/24 00:19:22;;;;;;;2.60;2.40;;;;;;;;;;5033298;28;20041;-62
2023/04/24 00:21:51;;;;;;;3.15;2.55;;;;;;;;;;5055021;28;20555;-62
2023/04/24 00:24:18;;;;;;;3.00;2.70;;;;;;;;;;5047023;28;20037;-62
2023/04/24 00:26:44;;;;;;;3.47;2.90;;;;;;;;;;5051893;28;20510;-62
2023/04/24 00:29:10;;;;;;;3.55;2.83;;;;;;;;;;5047763;28;20403;-62
2023/04/24 00:31:36;;;;;;;3.03;2.65;;;;;;;;;;5050772;28;20037;-62
2023/04/24 00:34:02;;;;;;;3.13;2.83;;;;;;;;;;5041638;28;20041;-62
2023/04/24 00:36:28;;;;;;;2.58;2.38;;;;;;;;;;5050969;28;20132;-62
2023/04/24 00:38:55;;;;;;;2.80;2.50;;;;;;;;;;5049579;28;20129;-62
2023/04/24 00:41:22;;;;;;;2.40;2.20;;;;;;;;;;5031919;28;20065;-62
2023/04/24 00:43:48;;;;;;;2.45;2.25;;;;;;;;;;5023914;28;20065;-62
2023/04/24 00:46:14;;;;;;;1.88;1.70;;;;;;;;;;5057425;28;20044;-62
2023/04/24 00:48:40;;;;;;;1.90;1.70;;;;;;;;;;5047393;28;20179;-62
2023/04/24 00:51:06;;;;;;;3.45;1.50;;;;;;;;;;5048970;28;20502;-61
2023/04/24 00:53:32;;;;;;;1.83;1.73;;;;;;;;;;5035651;28;20037;-61
2023/04/24 00:55:59;;;;;;;1.63;1.52;;;;;;;;;;5046384;28;20045;-61
2023/04/24 00:58:25;;;;;;;2.35;1.65;;;;;;;;;;5047788;28;20052;-62
2023/04/24 01:00:53;;;;;;;2.63;1.60;;;;;;;;;;5053897;28;20037;-62
2023/04/24 01:03:23;;;;;;;1.83;1.48;;;;;;;;;;5038385;28;20041;-62
2023/04/24 01:05:49;;;;;;;1.55;1.45;;;;;;;;;;5022770;28;20124;-62
2023/04/24 01:08:15;;;;;;;2.15;1.60;;;;;;;;;;5038527;28;20059;-62
2023/04/24 01:10:42;;;;;;;1.73;1.63;;;;;;;;;;5041150;28;20041;-62
2023/04/24 01:13:11;;;;;;;2.47;2.00;;;;;;;;;;5054755;28;20072;-61
2023/04/24 01:15:37;;;;;;;2.03;1.92;;;;;;;;;;5036928;28;20037;-61
2023/04/24 01:18:03;;;;;;;2.10;1.90;;;;;;;;;;5040564;28;20038;-61
2023/04/24 01:20:29;;;;;;;2.25;2.05;;;;;;;;;;5033415;28;20440;-61
2023/04/24 01:23:00;;;;;;;2.58;2.38;;;;;;;;;;5052968;28;20046;-61
2023/04/24 01:25:26;;;;;;;2.37;2.23;;;;;;;;;;5052354;28;20099;-61
2023/04/24 01:27:52;;;;;;;2.95;2.40;;;;;;;;;;5045179;28;20295;-61
2023/04/24 01:30:18;;;;;;;2.55;2.35;;;;;;;;;;5044156;28;20029;-61
2023/04/24 01:32:45;;;;;;;3.88;2.63;;;;;;;;;;5043104;28;20049;-61
2023/04/24 01:35:11;;;;;;;2.95;2.60;;;;;;;;;;5043707;28;20099;-61
2023/04/24 01:37:37;;;;;;;2.85;2.65;;;;;;;;;;5035222;28;20083;-61
2023/04/24 01:40:04;;;;;;;2.97;2.75;;;;;;;;;;5032448;28;20036;-61
2023/04/24 01:42:30;;;;;;;3.45;2.67;;;;;;;;;;5065853;28;20044;-61
2023/04/24 01:44:57;;;;;;;3.85;3.00;;;;;;;;;;5046346;28;20162;-61
2023/04/24 01:47:24;;;;;;;2.95;2.40;;;;;;;;;;5041161;28;20041;-61
2023/04/24 01:49:50;;;;;;;3.15;2.80;;;;;;;;;;5057687;28;20042;-61
2023/04/24 01:52:17;;;;;;;4.38;3.38;;;;;;;;;;5042152;28;20037;-61
2023/04/24 01:54:43;;;;;;;3.53;3.10;;;;;;;;;;5043596;28;20045;-61
2023/04/24 01:57:10;;;;;;;3.58;2.63;;;;;;;;;;5051682;28;20045;-61
2023/04/24 01:59:37;;;;;;;3.30;3.00;;;;;;;;;;5061980;28;20116;-62
2023/04/24 02:02:03;;;;;;;3.78;3.45;;;;;;;;;;5046456;28;20053;-62
2023/04/24 02:04:29;;;;;;;4.50;3.67;;;;;;;;;;5027156;28;20037;-61
2023/04/24 02:06:55;;;;;;;4.20;3.80;;;;;;;;;;5043160;28;20057;-61
2023/04/24 02:09:21;;;;;;;5.65;3.90;;;;;;;;;;5055820;28;20069;-62
2023/04/24 02:11:47;;;;;;;4.65;4.25;;;;;;;;;;5030254;28;20402;-61
2023/04/24 02:14:13;;;;;;;5.18;4.00;;;;;;;;;;5039232;28;20084;-62
2023/04/24 02:16:39;;;;;;;6.00;4.78;;;;;;;;;;5046293;28;20033;-61
2023/04/24 02:19:05;;;;;;;6.72;5.07;;;;;;;;;;5070157;28;20453;-61
2023/04/24 02:21:32;;;;;;;7.03;5.03;;;;;;;;;;5053552;28;20033;-61
2023/04/24 02:23:58;;;;;;;6.50;5.38;;;;;;;;;;5046821;22;20069;-64
2023/04/24 02:26:24;;;;;;;6.43;5.38;;;;;;;;;;5042299;28;20479;-64
2023/04/24 02:28:50;;;;;;;5.95;5.20;;;;;;;;;;5035985;28;20045;-64
2023/04/24 02:31:16;;;;;;;6.85;5.05;;;;;;;;;;5037606;28;20041;-64
2023/04/24 02:33:42;;;;;;;6.97;4.93;;;;;;;;;;5033133;28;20037;-64
2023/04/24 02:36:08;;;;;;;7.35;5.03;;;;;;;;;;5035958;28;20029;-65
2023/04/24 02:38:34;;;;;;;6.25;5.60;;;;;;;;;;5047350;28;20044;-64
2023/04/24 02:41:01;;;;;;;6.40;5.72;;;;;;;;;;5033794;28;20052;-64
2023/04/24 02:43:27;;;;;;;7.07;5.13;;;;;;;;;;5032492;28;20120;-64
2023/04/24 02:45:53;;;;;;;6.72;5.00;;;;;;;;;;5041299;28;20125;-64
2023/04/24 02:48:20;;;;;;;6.20;5.60;;;;;;;;;;5033999;28;20117;-65
2023/04/24 02:50:46;;;;;;;5.63;4.85;;;;;;;;;;5031567;28;20045;-64
2023/04/24 02:53:12;;;;;;;7.88;5.28;;;;;;;;;;5032777;28;20553;-64
2023/04/24 02:55:38;;;;;;;6.22;4.95;;;;;;;;;;5040848;28;20033;-64
2023/04/24 02:58:05;;;;;;;6.78;5.70;;;;;;;;;;5035849;28;20041;-64
2023/04/24 03:00:31;;;;;;;5.68;5.07;;;;;;;;;;5033414;28;20117;-64
2023/04/24 03:02:57;;;;;;;5.93;5.32;;;;;;;;;;5032920;28;20124;-64
2023/04/24 03:05:23;;;;;;;5.55;5.05;;;;;;;;;;5036619;28;20029;-64
2023/04/24 03:07:49;;;;;;;5.50;5.00;;;;;;;;;;5043052;28;20495;-64
2023/04/24 03:10:15;;;;;;;6.18;4.93;;;;;;;;;;5032174;28;20044;-64
2023/04/24 03:12:41;;;;;;;5.35;4.80;;;;;;;;;;5028856;28;20072;-65
2023/04/24 03:15:07;;;;;;;5.50;5.00;;;;;;;;;;5029693;28;20436;-64
2023/04/24 03:17:33;;;;;;;5.45;4.90;;;;;;;;;;5029536;28;20061;-64
2023/04/24 03:19:59;;;;;;;7.00;4.88;;;;;;;;;;5030913;28;20069;-64
2023/04/24 03:22:25;;;;;;;5.97;4.38;;;;;;;;;;5030954;28;20042;-64
2023/04/24 03:24:51;;;;;;;4.93;4.43;;;;;;;;;;5031493;28;20044;-65
2023/04/24 03:27:17;;;;;;;5.55;4.63;;;;;;;;;;5036149;28;20072;-64
2023/04/24 03:29:43;;;;;;;4.85;4.10;;;;;;;;;;5031479;28;20065;-64
2023/04/24 03:32:09;;;;;;;7.82;5.45;;;;;;;;;;5030441;28;20445;-64
2023/04/24 03:34:35;;;;;;;6.10;5.32;;;;;;;;;;5031818;28;20078;-64
2023/04/24 03:37:02;;;;;;;6.65;5.10;;;;;;;;;;5038754;28;20187;-64
2023/04/24 03:39:28;;;;;;;7.47;5.43;;;;;;;;;;5030644;28;20116;-64
2023/04/24 03:41:54;;;;;;;8.90;5.68;;;;;;;;;;5032067;28;20052;-64
2023/04/24 03:44:20;;;;;;;7.15;5.65;;;;;;;;;;5030819;28;20041;-65
2023/04/24 03:46:46;;;;;;;6.57;5.35;;;;;;;;;;5050084;28;20098;-64
2023/04/24 03:49:12;;;;;;;7.88;6.57;;;;;;;;;;5050299;28;20510;-64
2023/04/24 03:51:38;;;;;;;6.63;5.85;;;;;;;;;;5032692;28;20041;-64
2023/04/24 03:54:04;;;;;;;6.57;5.72;;;;;;;;;;5031387;28;20037;-64
2023/04/24 03:56:30;;;;;;;7.38;5.97;;;;;;;;;;5039999;28;20108;-64
2023/04/24 03:58:56;;;;;;;9.30;6.35;;;;;;;;;;5031061;28;20514;-64
2023/04/24 04:01:22;;;;;;;8.27;6.03;;;;;;;;;;5030058;28;20414;-64
2023/04/24 04:03:48;;;;;;;7.60;6.22;;;;;;;;;;5032039;28;20049;-64
2023/04/24 04:06:14;;;;;;;6.80;5.70;;;;;;;;;;5037701;28;20044;-64
2023/04/24 04:08:40;;;;;;;9.82;6.47;;;;;;;;;;5034821;28;20049;-64
2023/04/24 04:11:06;;;;;;;7.95;6.00;;;;;;;;;;5030575;28;20087;-64
2023/04/24 04:13:32;;;;;;;8.70;6.80;;;;;;;;;;5027454;28;20132;-65
2023/04/24 04:15:58;;;;;;;8.85;6.55;;;;;;;;;;5030330;28;20140;-65
2023/04/24 04:18:24;;;;;;;8.30;6.53;;;;;;;;;;5037632;28;20033;-65
2023/04/24 04:20:50;;;;;;;8.98;6.65;;;;;;;;;;5035334;28;20042;-65
2023/04/24 04:23:16;;;;;;;9.68;6.97;;;;;;;;;;5031865;28;20457;-64
2023/04/24 04:25:42;;;;;;;7.88;5.80;;;;;;;;;;5034630;28;20057;-65
2023/04/24 04:28:08;;;;;;;10.50;7.18;;;;;;;;;;5043852;28;20041;-65
2023/04/24 04:30:34;;;;;;;9.70;6.80;;;;;;;;;;5051815;28;20086;-65
2023/04/24 04:33:01;;;;;;;7.93;6.35;;;;;;;;;;5035189;28;20050;-65
2023/04/24 04:35:26;;;;;;;8.20;6.03;;;;;;;;;;5031316;28;20104;-65
2023/04/24 04:37:52;;;;;;;8.57;6.35;;;;;;;;;;5034141;28;20065;-65
2023/04/24 04:40:18;;;;;;;9.35;6.10;;;;;;;;;;5037832;28;20029;-65
2023/04/24 04:42:45;;;;;;;7.25;5.63;;;;;;;;;;5030438;28;20469;-65
2023/04/24 04:45:12;;;;;;;8.52;6.35;;;;;;;;;;5028279;28;20050;-65
2023/04/24 04:47:39;;;;;;;7.78;5.72;;;;;;;;;;5037989;28;20052;-65
2023/04/24 04:50:05;;;;;;;7.57;5.82;;;;;;;;;;5027157;28;20041;-65
2023/04/24 04:52:31;;;;;;;8.48;5.88;;;;;;;;;;5029813;28;20045;-65
2023/04/24 04:54:57;;;;;;;10.25;6.45;;;;;;;;;;5032642;28;20038;-65
2023/04/24 04:57:23;;;;;;;8.45;6.30;;;;;;;;;;5040249;28;20040;-65
2023/04/24 04:59:49;;;;;;;8.60;5.78;;;;;;;;;;5034022;28;20138;-64
2023/04/24 05:02:15;;;;;;;7.63;5.97;;;;;;;;;;5034703;28;20037;-64
2023/04/24 05:04:41;;;;;;;9.05;6.50;;;;;;;;;;5039985;28;20095;-64
2023/04/24 05:07:07;;;;;;;8.02;6.30;;;;;;;;;;5037960;28;20038;-65
2023/04/24 05:09:33;;;;;;;9.15;6.22;;;;;;;;;;5039191;28;20033;-65
2023/04/24 05:11:59;;;;;;;8.60;5.85;;;;;;;;;;5030539;28;20041;-65
2023/04/24 05:14:25;;;;;;;7.93;5.78;;;;;;;;;;5031215;28;20045;-65
2023/04/24 05:16:51;;;;;;;9.15;6.00;;;;;;;;;;5038937;28;20410;-64
2023/04/24 05:19:17;;;;;;;8.15;5.70;;;;;;;;;;5042402;28;20033;-64
2023/04/24 05:21:43;;;;;;;9.02;5.68;;;;;;;;;;5038193;28;20602;-64
2023/04/24 05:24:09;;;;;;;7.35;5.40;;;;;;;;;;5025945;28;20042;-64
2023/04/24 05:26:35;;;;;;;7.93;5.40;;;;;;;;;;5037422;28;20072;-65
2023/04/24 05:29:02;;;;;;;6.25;5.15;;;;;;;;;;5051267;28;20074;-65
2023/04/24 05:31:28;;;;;;;8.00;5.55;;;;;;;;;;5050890;28;20045;-65
2023/04/24 05:33:54;;;;;;;7.45;5.22;;;;;;;;;;5033519;28;20056;-66
2023/04/24 05:36:20;;;;;;;7.35;5.28;;;;;;;;;;5035140;28;20036;-66
2023/04/24 05:38:46;;;;;;;6.22;4.90;;;;;;;;;;5040656;28;20130;-65
2023/04/24 05:41:12;;;;;;;5.82;4.72;;;;;;;;;;5029020;28;20395;-65
2023/04/24 05:43:38;;;;;;;5.85;4.70;;;;;;;;;;5037200;28;20406;-66
2023/04/24 05:46:04;;;;;;;5.38;4.32;;;;;;;;;;5039837;28;20037;-65
2023/04/24 05:48:30;;;;;;;4.50;3.60;;;;;;;;;;5031231;28;20045;-65
2023/04/24 05:50:56;;;;;;;5.20;4.18;;;;;;;;;;5029532;28;20041;-65
2023/04/24 05:53:22;;;;;;;6.00;4.20;;;;;;;;;;5044180;28;20380;-65
2023/04/24 05:55:48;;;;;;;4.45;3.63;;;;;;;;;;5033737;28;20037;-65
2023/04/24 05:58:14;;;;;;;5.03;3.75;;;;;;;;;;5030034;28;20029;-65
2023/04/24 06:00:42;;;;;;;4.78;3.63;;;;;;;;;;5028390;28;20042;-65
2023/04/24 06:03:08;;;;;;;5.93;3.70;;;;;;;;;;5032326;28;20115;-65
2023/04/24 06:05:35;;;;;;;5.43;3.22;;;;;;;;;;5031745;28;20445;-65
2023/04/24 06:08:01;;;;;;;4.03;3.10;;;;;;;;;;5030931;28;20045;-65
2023/04/24 06:10:27;;;;;;;3.33;2.40;;;;;;;;;;5029771;28;20049;-65
2023/04/24 06:12:56;;;;;;;3.65;2.80;;;;;;;;;;5029117;28;20041;-65
2023/04/24 06:15:22;;;;;;;5.40;2.78;;;;;;;;;;5034910;28;20041;-65
2023/04/24 06:17:48;;;;;;;4.22;2.70;;;;;;;;;;5034777;28;20044;-65
2023/04/24 06:20:14;;;;;;;3.38;3.00;;;;;;;;;;5037987;28;20049;-65
2023/04/24 06:22:40;;;;;;;4.43;3.10;;;;;;;;;;5029343;28;20042;-65
2023/04/24 06:25:07;;;;;;;4.82;3.03;;;;;;;;;;5042547;28;20454;-65
2023/04/24 06:27:33;;;;;;;19.83;7.38;;;;;;;;;;5038500;28;20033;-65
2023/04/24 06:29:59;;;;;;;3.88;2.97;;;;;;;;;;5030869;28;20044;-66
2023/04/24 06:32:25;;;;;;;3.83;2.70;;;;;;;;;;5040636;28;20145;-66
2023/04/24 06:34:52;;;;;;;4.25;2.42;;;;;;;;;;5033660;28;20046;-66
2023/04/24 06:37:19;;;;;;;4.30;2.03;;;;;;;;;;5027995;28;20511;-65
2023/04/24 06:39:45;;;;;;;2.42;2.17;;;;;;;;;;5033769;28;20037;-66
2023/04/24 06:42:11;;;;;;;2.08;1.77;;;;;;;;;;5030630;28;20045;-65
2023/04/24 06:44:40;;;;;;;2.42;1.98;;;;;;;;;;5041916;28;20402;-66
2023/04/24 06:47:08;;;;;;;4.53;2.03;;;;;;;;;;5052212;28;20049;-65
2023/04/24 06:49:34;;;;;;;2.33;1.92;;;;;;;;;;5030378;28;20132;-65
2023/04/24 06:52:00;;;;;;;3.22;1.75;;;;;;;;;;5044337;28;20041;-65
2023/04/24 06:54:26;;;;;;;1.60;1.40;;;;;;;;;;5054132;28;20040;-65
2023/04/24 06:56:52;;;;;;;3.50;1.58;;;;;;;;;;5035372;28;20046;-65
2023/04/24 06:59:18;;;;;;;2.70;1.92;;;;;;;;;;5033193;28;20033;-65
2023/04/24 07:01:44;;;;;;;3.90;1.52;;;;;;;;;;5029215;28;20044;-66
2023/04/24 07:04:11;;;;;;;1.95;1.20;;;;;;;;;;5045196;28;20067;-66
2023/04/24 07:06:38;;;;;;;4.20;1.60;;;;;;;;;;5036711;28;20041;-65
2023/04/24 07:09:05;;;;;;;1.70;1.38;;;;;;;;;;5028641;28;20130;-66
2023/04/24 07:11:31;;;;;;;1.25;1.10;;;;;;;;;;5039525;28;20621;-65
2023/04/24 07:13:57;;;;;;;1.40;1.00;;;;;;;;;;5032551;28;20522;-65
2023/04/24 07:16:23;;;;;;;1.83;1.17;;;;;;;;;;5034076;28;20067;-65
2023/04/24 07:18:49;;;;;;;2.42;1.38;;;;;;;;;;5039408;28;20407;-66
2023/04/24 07:21:15;;;;;;;2.63;1.50;;;;;;;;;;5052502;28;20110;-65
2023/04/24 07:23:41;;;;;;;3.50;2.00;;;;;;;;;;5034074;28;20041;-66
2023/04/24 07:26:07;;;;;;;2.42;1.70;;;;;;;;;;5049873;28;20211;-65
2023/04/24 07:28:33;;;;;;;2.83;1.92;;;;;;;;;;5032285;28;20038;-66
2023/04/24 07:30:59;;;;;;;4.18;2.30;;;;;;;;;;5031097;28;20045;-65
2023/04/24 07:33:25;;;;;;;4.85;2.63;;;;;;;;;;5031797;28;20304;-65
2023/04/24 07:35:52;;;;;;;4.00;2.38;;;;;;;;;;5048178;28;20112;-65
2023/04/24 07:38:21;;;;;;;4.05;2.97;;;;;;;;;;5039354;28;20507;-65
2023/04/24 07:40:47;;;;;;;4.88;3.10;;;;;;;;;;5032337;28;20517;-66
2023/04/24 07:43:13;;;;;;;6.32;3.10;;;;;;;;;;5031716;28;20120;-65
2023/04/24 07:45:39;;;;;;;4.70;3.45;;;;;;;;;;5048902;28;20037;-66
2023/04/24 07:48:05;;;;;;;6.03;3.92;;;;;;;;;;5032688;28;20075;-66
2023/04/24 07:50:31;;;;;;;5.97;3.95;;;;;;;;;;5032905;28;20041;-66
2023/04/24 07:52:57;;;;;;;6.57;4.25;;;;;;;;;;5031649;28;20049;-65
2023/04/24 07:55:23;;;;;;;6.75;3.75;;;;;;;;;;5044950;28;20029;-65
2023/04/24 07:57:49;;;;;;;4.90;3.95;;;;;;;;;;5042924;28;20030;-65
2023/04/24 08:00:16;;;;;;;4.88;3.85;;;;;;;;;;5032910;28;20384;-66
2023/04/24 08:02:42;;;;;;;7.38;3.85;;;;;;;;;;5031182;28;20163;-65
2023/04/24 08:05:08;;;;;;;5.18;3.70;;;;;;;;;;5038893;28;20117;-65
2023/04/24 08:07:35;;;;;;;6.03;3.75;;;;;;;;;;5042165;28;20041;-65
2023/04/24 08:10:01;;;;;;;6.13;4.00;;;;;;;;;;5032344;28;20115;-66
2023/04/24 08:12:28;;;;;;;4.55;3.65;;;;;;;;;;5031875;28;20511;-66
2023/04/24 08:14:54;;;;;;;5.03;3.08;;;;;;;;;;5033509;28;20091;-65
2023/04/24 08:17:20;;;;;;;3.65;2.72;;;;;;;;;;5047151;28;20033;-65
2023/04/24 08:19:50;;;;;;;3.78;2.72;;;;;;;;;;5032725;28;20566;-65
2023/04/24 08:24:45;;;;;;;3.80;2.42;;;;;;;;;;5058730;28;20056;-62
2023/04/24 08:27:11;;;;;;;4.60;2.67;;;;;;;;;;5057930;28;20040;-62
2023/04/24 08:29:37;;;;;;;2.90;2.22;;;;;;;;;;5025622;28;20406;-62
2023/04/24 08:32:03;;;;;;;4.85;2.63;;;;;;;;;;5051230;28;20069;-62
2023/04/24 08:34:29;;;;;;;2.53;2.28;;;;;;;;;;5029141;28;20048;-62
2023/04/24 08:36:55;;;;;;;3.67;2.03;;;;;;;;;;5060441;28;20355;-62
2023/04/24 08:39:21;;;;;;;3.95;2.55;;;;;;;;;;5049611;28;20128;-62
2023/04/24 08:41:49;;;;;;;6.40;2.92;;;;;;;;;;5058226;28;20120;-62
2023/04/24 08:44:15;;;;;;;5.68;2.70;;;;;;;;;;5063015;28;20040;-62
2023/04/24 08:46:43;;;;;;;5.30;2.70;;;;;;;;;;5062450;28;20044;-62
2023/04/24 08:49:09;;;;;;;5.43;2.70;;;;;;;;;;5058860;28;20036;-62
2023/04/24 08:51:37;;;;;;;6.07;3.40;;;;;;;;;;5071279;28;20409;-62
2023/04/24 08:54:03;;;;;;;4.93;3.45;;;;;;;;;;5063574;28;20076;-62
2023/04/24 08:56:30;;;;;;;9.23;4.25;;;;;;;;;;5065290;28;20114;-62
2023/04/24 08:58:57;;;;;;;11.70;5.25;;;;;;;;;;5051397;28;20049;-62
2023/04/24 09:01:24;;;;;;;12.07;6.32;;;;;;;;;;5044386;28;20044;-62
2023/04/24 09:03:50;;;;;;;9.63;6.00;;;;;;;;;;5049167;28;20044;-62
2023/04/24 09:06:18;;;;;;;15.30;6.85;;;;;;;;;;5060510;28;20040;-62
2023/04/24 09:08:44;;;;;;;11.90;6.78;;;;;;;;;;5065990;28;20048;-62
2023/04/24 09:11:10;;;;;;;12.77;7.50;;;;;;;;;;5059189;28;20040;-62
2023/04/24 09:13:37;;;;;;;12.77;7.07;;;;;;;;;;5050525;28;20048;-62
2023/04/24 09:16:03;;;;;;;12.60;8.02;;;;;;;;;;5051584;28;20033;-62
2023/04/24 09:18:29;;;;;;;19.38;9.18;;;;;;;;;;5044968;28;20041;-62
2023/04/24 09:21:00;;;;;;;14.52;8.13;;;;;;;;;;5038583;28;20614;-62
2023/04/24 09:23:29;;;;;;;14.30;8.32;;;;;;;;;;5070828;28;20036;-62
2023/04/24 09:25:56;;;;;;;17.08;9.50;;;;;;;;;;5064723;28;20048;-62
2023/04/24 09:28:26;;;;;;;20.10;10.40;;;;;;;;;;5056588;28;20044;-62
2023/04/24 09:31:02;;;;;;;25.52;12.07;;;;;;;;;;5051518;28;20045;-62
2023/04/24 09:33:30;;;;;;;24.25;13.32;;;;;;;;;;5049845;28;20033;-62
2023/04/24 09:35:56;;;;;;;25.55;13.90;;;;;;;;;;5042639;28;20102;-62
2023/04/24 09:38:35;;;;;;;25.63;14.07;;;;;;;;;;5050945;28;20072;-62
2023/04/24 09:41:08;;;;;;;22.88;12.90;;;;;;;;;;5060715;28;20044;-63
2023/04/24 09:43:35;;;;;;;25.38;13.32;;;;;;;;;;5031063;28;20091;-62
2023/04/24 09:46:05;;;;;;;22.27;13.38;;;;;;;;;;5040240;28;20048;-62
2023/04/24 09:48:32;;;;;;;26.45;13.68;;;;;;;;;;5042891;28;20410;-62
2023/04/24 09:50:58;;;;;;;26.40;13.65;;;;;;;;;;5051279;28;20045;-62
2023/04/24 09:53:26;;;;;;;23.55;13.75;;;;;;;;;;5046326;28;20128;-62
2023/04/24 09:55:52;;;;;;;25.23;13.63;;;;;;;;;;5058129;28;20041;-62
2023/04/24 09:58:19;;;;;;;23.00;12.90;;;;;;;;;;5058179;28;20037;-62
2023/04/24 10:00:46;;;;;;;21.65;13.02;;;;;;;;;;5035237;28;20041;-62
2023/04/24 10:03:12;;;;;;;21.60;10.98;;;;;;;;;;5053637;28;20119;-61
2023/04/24 10:05:38;;;;;;;17.98;11.13;;;;;;;;;;5046712;28;20428;-62
2023/04/24 10:08:05;;;;;;;20.85;11.57;;;;;;;;;;5063390;28;20409;-62
2023/04/24 10:10:32;;;;;;;17.63;10.05;;;;;;;;;;5074665;28;20040;-62
2023/04/24 10:12:59;;;;;;;18.00;10.50;;;;;;;;;;5060301;28;20131;-61
2023/04/24 10:15:26;;;;;;;19.15;11.13;;;;;;;;;;5058558;28;20025;-62
2023/04/24 10:17:52;;;;;;;20.83;10.73;;;;;;;;;;5051423;28;20037;-62
2023/04/24 10:20:22;;;;;;;15.23;10.18;;;;;;;;;;5050196;28;20037;-62
2023/04/24 10:22:52;;;;;;;17.38;9.55;;;;;;;;;;5005508;28;20037;-62
2023/04/24 10:25:22;;;;;;;17.23;8.98;;;;;;;;;;5065638;28;20090;-62
2023/04/24 10:27:48;;;;;;;19.40;8.88;;;;;;;;;;5063970;28;20047;-62
2023/04/24 10:30:15;;;;;;;16.13;9.45;;;;;;;;;;5052774;28;20040;-62
2023/04/24 10:32:41;;;;;;;15.35;8.35;;;;;;;;;;5050587;28;20502;-62
2023/04/24 10:35:07;;;;;;;15.95;8.50;;;;;;;;;;5045751;28;20119;-62
2023/04/24 10:37:37;;;;;;;16.77;8.18;;;;;;;;;;5052598;28;20442;-62
2023/04/24 10:40:05;;;;;;;13.27;8.60;;;;;;;;;;5045607;28;20037;-62
2023/04/24 10:42:31;;;;;;;14.77;8.07;;;;;;;;;;5053139;28;20445;-62
2023/04/24 10:44:57;;;;;;;14.75;7.65;;;;;;;;;;5050000;28;20032;-62
2023/04/24 10:47:25;;;;;;;13.57;7.53;;;;;;;;;;5057696;28;20049;-62
2023/04/24 10:49:51;;;;;;;13.90;6.40;;;;;;;;;;5073580;28;20109;-62
2023/04/24 10:52:17;;;;;;;13.82;6.20;;;;;;;;;;5063239;28;20120;-61
2023/04/24 10:54:49;;;;;;;11.23;5.95;;;;;;;;;;5049304;28;20144;-62
2023/04/24 10:57:21;;;;;;;12.57;5.22;;;;;;;;;;5061720;28;20040;-62
2023/04/24 10:59:48;;;;;;;11.25;4.78;;;;;;;;;;5053456;28;20124;-62
2023/04/24 11:02:18;;;;;;;12.75;5.57;;;;;;;;;;5052589;28;20095;-62
2023/04/24 11:04:44;;;;;;;13.38;4.97;;;;;;;;;;5057674;28;20402;-62
2023/04/24 11:07:11;;;;;;;10.65;4.63;;;;;;;;;;5064036;28;20135;-62
2023/04/24 11:09:40;;;;;;;9.07;4.25;;;;;;;;;;5048736;28;20142;-62
2023/04/24 11:12:07;;;;;;;11.50;4.35;;;;;;;;;;5056151;28;20048;-62
2023/04/24 11:14:52;;;;;;;15.55;4.93;;;;;;;;;;5052151;28;20051;-62
2023/04/24 11:17:37;;;;;;;14.35;4.28;;;;;;;;;;5045134;28;20367;-62
2023/04/24 11:20:11;;;;;;;11.20;3.92;;;;;;;;;;5045616;28;20045;-62
2023/04/24 11:22:39;;;;;;;9.15;3.33;;;;;;;;;;5052365;28;20043;-62
2023/04/24 11:25:06;;;;;;;8.73;3.72;;;;;;;;;;5038423;28;20049;-62
2023/04/24 11:27:38;;;;;;;8.02;3.60;;;;;;;;;;5059735;28;20033;-62
2023/04/24 11:30:05;;;;;;;10.73;3.80;;;;;;;;;;5044657;28;20116;-62
2023/04/24 11:32:37;;;;;;;9.27;3.60;;;;;;;;;;5052076;28;20037;-62
2023/04/24 11:35:06;;;;;;;12.27;3.22;;;;;;;;;;5027749;28;20042;-62
2023/04/24 11:37:43;;;;;;;9.85;3.63;;;;;;;;;;5051986;28;20487;-62
2023/04/24 11:40:10;;;;;;;10.65;3.17;;;;;;;;;;5052490;28;20028;-62
2023/04/24 11:42:37;;;;;;;8.88;3.05;;;;;;;;;;5050529;28;20094;-62
2023/04/24 11:45:08;;;;;;;8.88;3.08;;;;;;;;;;5027525;28;20521;-62
2023/04/24 11:47:34;;;;;;;7.30;2.03;;;;;;;;;;5052495;28;20051;-62
2023/04/24 11:50:00;;;;;;;8.48;2.53;;;;;;;;;;5043875;28;20507;-62
2023/04/24 11:52:27;;;;;;;7.57;2.85;;;;;;;;;;5050308;28;20040;-62
2023/04/24 11:54:53;;;;;;;9.90;2.78;;;;;;;;;;5062270;28;20036;-62
2023/04/24 11:57:22;;;;;;;8.82;3.00;;;;;;;;;;5049191;28;20597;-61
2023/04/24 11:59:48;;;;;;;7.40;2.40;;;;;;;;;;5043344;28;20261;-62
2023/04/24 12:02:21;;;;;;;7.60;2.60;;;;;;;;;;5064091;28;20047;-62
2023/04/24 12:04:47;;;;;;;7.40;2.53;;;;;;;;;;5064658;28;20046;-62
2023/04/24 12:07:13;;;;;;;10.13;2.60;;;;;;;;;;5038595;28;20032;-62
2023/04/24 12:09:46;;;;;;;10.77;2.83;;;;;;;;;;5052122;28;20044;-62
2023/04/24 12:12:16;;;;;;;7.70;2.40;;;;;;;;;;5044894;28;20495;-62
2023/04/24 12:15:02;;;;;;;8.40;2.25;;;;;;;;;;5051664;28;20041;-62
2023/04/24 12:17:30;;;;;;;8.57;2.10;;;;;;;;;;5051349;28;20041;-62
2023/04/24 12:20:04;;;;;;;8.52;2.50;;;;;;;;;;5041826;28;20109;-62
2023/04/24 12:22:49;;;;;;;6.93;2.03;;;;;;;;;;5055883;28;20097;-62
2023/04/24 12:25:19;;;;;;;5.97;2.30;;;;;;;;;;5072425;28;20075;-62
2023/04/24 12:27:45;;;;;;;7.95;2.08;;;;;;;;;;5065383;28;20403;-61
2023/04/24 12:30:13;;;;;;;9.40;2.10;;;;;;;;;;5049161;28;20044;-62
2023/04/24 12:32:43;;;;;;;7.03;2.00;;;;;;;;;;5063436;28;20032;-62
2023/04/24 12:35:09;;;;;;;5.90;1.88;;;;;;;;;;5041282;28;20103;-61
2023/04/24 12:37:36;;;;;;;7.65;2.08;;;;;;;;;;5057389;28;20037;-62
2023/04/24 12:40:02;;;;;;;6.70;2.10;;;;;;;;;;5046567;28;20059;-62
2023/04/24 12:42:29;;;;;;;6.25;1.83;;;;;;;;;;5048312;28;20125;-61
2023/04/24 12:44:59;;;;;;;6.75;2.13;;;;;;;;;;5050217;28;20044;-62
2023/04/24 12:47:25;;;;;;;4.35;2.10;;;;;;;;;;5033340;28;20487;-62
2023/04/24 12:49:52;;;;;;;4.32;1.90;;;;;;;;;;5042669;28;20545;-62
2023/04/24 12:52:19;;;;;;;3.45;1.50;;;;;;;;;;5051526;28;20043;-62
2023/04/24 12:54:46;;;;;;;6.15;1.50;;;;;;;;;;5051889;28;20076;-61
2023/04/24 12:57:12;;;;;;;8.23;1.77;;;;;;;;;;5049523;28;20037;-62
2023/04/24 12:59:39;;;;;;;2.67;1.00;;;;;;;;;;5041642;28;20438;-62
2023/04/24 13:02:05;;;;;;;3.47;1.00;;;;;;;;;;5050407;28;20494;-62
2023/04/24 13:04:32;;;;;;;3.92;1.20;;;;;;;;;;5049241;28;20029;-62
2023/04/24 13:06:58;;;;;;;2.28;0.98;;;;;;;;;;5049202;28;20097;-61
2023/04/24 13:09:24;;;;;;;3.15;0.80;;;;;;;;;;5050638;28;20494;-62
2023/04/24 13:11:50;;;;;;;3.17;0.85;;;;;;;;;;5049645;28;20059;-62
2023/04/24 13:14:16;;;;;;;3.10;0.93;;;;;;;;;;5049574;28;20075;-62
2023/04/24 13:16:42;;;;;;;4.70;1.17;;;;;;;;;;5066817;28;20060;-62
2023/04/24 13:19:08;;;;;;;2.38;1.08;;;;;;;;;;5051693;28;20087;-61
2023/04/24 13:21:34;;;;;;;4.93;1.17;;;;;;;;;;5033048;28;20087;-62
2023/04/24 13:24:01;;;;;;;5.50;1.10;;;;;;;;;;5049179;28;20044;-61
2023/04/24 13:26:27;;;;;;;2.75;0.98;;;;;;;;;;5049776;28;20072;-62
2023/04/24 13:28:52;;;;;;;3.35;1.10;;;;;;;;;;5047003;28;20489;-62
2023/04/24 13:31:18;;;;;;;5.30;1.30;;;;;;;;;;5053339;28;20139;-62
2023/04/24 13:33:45;;;;;;;5.00;1.08;;;;;;;;;;5063326;28;20094;-62
2023/04/24 13:36:11;;;;;;;4.25;1.10;;;;;;;;;;5062614;28;20511;-62
2023/04/24 13:38:36;;;;;;;5.80;1.30;;;;;;;;;;5060914;28;20066;-62
2023/04/24 13:41:02;;;;;;;3.92;1.30;;;;;;;;;;5047151;28;20155;-62
2023/04/24 13:43:28;;;;;;;4.78;1.30;;;;;;;;;;5055496;28;20098;-62
2023/04/24 13:45:54;;;;;;;3.45;1.23;;;;;;;;;;5053773;28;20037;-62
2023/04/24 13:48:21;;;;;;;7.47;1.45;;;;;;;;;;5057292;28;20041;-62
2023/04/24 13:50:49;;;;;;;7.13;1.50;;;;;;;;;;5052410;28;20099;-62
2023/04/24 13:53:15;;;;;;;9.57;2.03;;;;;;;;;;5050501;28;20051;-62
2023/04/24 13:55:41;;;;;;;6.32;1.33;;;;;;;;;;5074065;28;20478;-62
2023/04/24 13:58:07;;;;;;;3.85;1.45;;;;;;;;;;5057286;28;20040;-62
2023/04/24 14:00:33;;;;;;;6.00;2.00;;;;;;;;;;5059133;28;20028;-62
2023/04/24 14:02:59;;;;;;;9.00;1.92;;;;;;;;;;5063834;28;20041;-62
2023/04/24 14:05:25;;;;;;;6.05;1.63;;;;;;;;;;5059328;28;20036;-62
2023/04/24 14:07:51;;;;;;;2.45;1.20;;;;;;;;;;5068302;28;20045;-62
2023/04/24 14:10:17;;;;;;;2.88;1.25;;;;;;;;;;5057709;28;20049;-62
2023/04/24 14:12:43;;;;;;;4.28;1.35;;;;;;;;;;5049620;28;20051;-62
2023/04/24 14:15:10;;;;;;;2.85;1.00;;;;;;;;;;5046038;28;20040;-62
2023/04/24 14:17:36;;;;;;;3.40;0.90;;;;;;;;;;5032995;28;20124;-62
2023/04/24 14:20:03;;;;;;;2.85;1.02;;;;;;;;;;5061298;28;20120;-62
2023/04/24 14:22:29;;;;;;;2.75;1.20;;;;;;;;;;5053337;28;20036;-63
2023/04/24 14:24:55;;;;;;;3.88;1.25;;;;;;;;;;5069577;22;20127;-65
2023/04/24 14:27:21;;;;;;;8.18;1.63;;;;;;;;;;5073757;28;20091;-64
2023/04/24 14:29:47;;;;;;;4.10;1.52;;;;;;;;;;5074197;28;20040;-65
2023/04/24 14:32:14;;;;;;;9.93;1.40;;;;;;;;;;5075466;28;20040;-65
2023/04/24 14:34:41;;;;;;;8.10;1.77;;;;;;;;;;5073628;28;20116;-65
2023/04/24 14:37:07;;;;;;;12.05;7.78;;;;;;;;;;5074696;28;20036;-65
2023/04/24 14:39:33;;;;;;;8.90;2.97;;;;;;;;;;5064572;28;20047;-65
2023/04/24 14:41:59;;;;;;;10.43;5.88;;;;;;;;;;5067267;28;20041;-64